Time;durP1;ratioP1;P1;durP2;ratioP2;P2;SDS_P1;SDS_P2;PMS_P1;PMS_P2;Temp;Humidity;BMP_temperature;BMP_pressure;BME280_temperature;BME280_humidity;BME280_pressure;Samples;Min_cycle;Max_cycle;Signal;HPM_P1;HPM_P2
2021/09/22 00:01:32;;;;;;;5.60;3.40;;;;;;;11.13;100.00;101722.63;4978273;28;20049;-80
2021/09/22 00:03:59;;;;;;;8.20;3.90;;;;;;;11.07;100.00;101721.75;4963743;28;20037;-82
2021/09/22 00:06:26;;;;;;;11.02;3.50;;;;;;;11.10;100.00;101713.78;4997459;28;20065;-82
2021/09/22 00:08:53;;;;;;;6.10;3.67;;;;;;;11.03;100.00;101715.63;4967573;28;20050;-83
2021/09/22 00:11:20;;;;;;;12.85;4.05;;;;;;;11.16;100.00;101719.06;4985331;28;20045;-82
2021/09/22 00:13:46;;;;;;;7.78;4.00;;;;;;;11.18;100.00;101714.63;4992251;28;20041;-81
2021/09/22 00:16:13;;;;;;;7.10;3.80;;;;;;;11.11;100.00;101712.94;5010635;28;20041;-82
2021/09/22 00:18:40;;;;;;;8.65;3.75;;;;;;;11.13;100.00;101730.53;4978284;28;20049;-82
2021/09/22 00:21:07;;;;;;;8.00;3.92;;;;;;;11.10;100.00;101727.03;4995780;28;20053;-82
2021/09/22 00:23:34;;;;;;;10.63;3.92;;;;;;;11.06;100.00;101720.88;4977919;28;20049;-81
2021/09/22 00:26:01;;;;;;;9.25;3.85;;;;;;;10.98;100.00;101725.34;4976986;28;20042;-82
2021/09/22 00:28:27;;;;;;;8.70;3.83;;;;;;;10.99;100.00;101722.69;4988747;28;20483;-82
2021/09/22 00:30:55;;;;;;;8.55;4.03;;;;;;;11.00;100.00;101715.63;4974905;28;20050;-82
2021/09/22 00:33:21;;;;;;;8.05;3.40;;;;;;;10.97;100.00;101715.66;4985751;28;20079;-82
2021/09/22 00:35:48;;;;;;;7.82;3.83;;;;;;;11.03;100.00;101718.28;4962906;28;20045;-82
2021/09/22 00:38:15;;;;;;;7.20;3.55;;;;;;;11.08;100.00;101715.59;4965111;28;20043;-83
2021/09/22 00:40:42;;;;;;;8.93;3.60;;;;;;;10.98;100.00;101712.13;4986456;28;20049;-82
2021/09/22 00:43:08;;;;;;;10.18;3.90;;;;;;;10.97;100.00;101716.53;4973650;28;20135;-82
2021/09/22 00:45:35;;;;;;;8.02;3.60;;;;;;;10.98;100.00;101710.34;4972556;28;20088;-82
2021/09/22 00:48:02;;;;;;;10.80;3.80;;;;;;;11.05;100.00;101715.59;4977967;28;20041;-81
2021/09/22 00:50:28;;;;;;;6.07;3.25;;;;;;;10.92;100.00;101720.06;5064808;23;20094;-81
2021/09/22 00:52:55;;;;;;;10.30;4.55;;;;;;;10.88;100.00;101716.56;4987775;28;20064;-81
2021/09/22 00:55:22;;;;;;;7.65;3.25;;;;;;;10.89;100.00;101717.44;5000445;28;20534;-80
2021/09/22 00:57:51;;;;;;;13.90;4.07;;;;;;;10.85;100.00;101721.00;5000799;28;20053;-79
2021/09/22 01:00:20;;;;;;;7.55;3.40;;;;;;;10.88;100.00;101720.97;4970991;28;20069;-80
2021/09/22 01:02:49;;;;;;;10.63;3.65;;;;;;;10.91;100.00;101715.66;5005593;28;20045;-81
2021/09/22 01:05:18;;;;;;;9.43;3.13;;;;;;;10.89;100.00;101723.63;4999879;28;20042;-79
2021/09/22 01:07:45;;;;;;;8.90;3.58;;;;;;;10.87;100.00;101720.09;5003813;28;20050;-80
2021/09/22 01:10:12;;;;;;;10.80;3.28;;;;;;;10.89;100.00;101731.53;4991838;28;20054;-79
2021/09/22 01:12:39;;;;;;;8.88;3.28;;;;;;;10.90;100.00;101717.44;4976851;28;20041;-79
2021/09/22 01:15:07;;;;;;;9.02;3.25;;;;;;;10.78;100.00;101714.00;5001317;28;20065;-79
2021/09/22 01:17:34;;;;;;;7.78;3.05;;;;;;;10.87;100.00;101713.94;5019786;28;20041;-79
2021/09/22 01:20:07;;;;;;;5.97;2.72;;;;;;;10.71;100.00;101708.72;4971050;28;20045;-80
2021/09/22 01:22:34;;;;;;;6.57;3.15;;;;;;;10.67;100.00;101706.97;4991474;28;20037;-79
2021/09/22 01:25:01;;;;;;;10.07;3.60;;;;;;;10.65;100.00;101706.09;4992094;28;20042;-80
2021/09/22 01:27:27;;;;;;;7.35;3.50;;;;;;;10.67;100.00;101711.38;5011979;28;20046;-79
2021/09/22 01:29:54;;;;;;;13.88;3.67;;;;;;;10.64;100.00;101709.63;4989024;28;20131;-80
2021/09/22 01:32:22;;;;;;;11.98;4.35;;;;;;;10.68;100.00;101705.22;5007306;28;20095;-79
2021/09/22 01:34:48;;;;;;;10.82;4.22;;;;;;;10.74;100.00;101713.09;4991267;28;20045;-78
2021/09/22 01:37:15;;;;;;;8.30;3.88;;;;;;;10.83;100.00;101717.47;4972479;28;20695;-80
2021/09/22 01:39:43;;;;;;;11.48;3.83;;;;;;;10.75;100.00;101713.97;5029951;28;20104;-79
2021/09/22 01:42:10;;;;;;;10.07;3.83;;;;;;;10.76;100.00;101716.63;5000076;28;20049;-80
2021/09/22 01:44:36;;;;;;;11.38;4.10;;;;;;;10.84;100.00;101713.94;5000812;28;20038;-79
2021/09/22 01:47:03;;;;;;;11.77;3.75;;;;;;;10.79;100.00;101715.75;4999429;28;20046;-79
2021/09/22 01:49:30;;;;;;;7.88;3.35;;;;;;;10.74;100.00;101718.41;5008912;28;20040;-80
2021/09/22 01:51:58;;;;;;;10.60;4.28;;;;;;;10.79;100.00;101710.47;4996252;28;20041;-80
2021/09/22 01:54:25;;;;;;;9.55;3.58;;;;;;;10.77;100.00;101710.47;5011392;28;20087;-79
2021/09/22 01:56:52;;;;;;;10.85;3.45;;;;;;;10.74;100.00;101709.59;4995927;28;20045;-79
2021/09/22 01:59:19;;;;;;;11.98;4.43;;;;;;;10.83;100.00;101709.53;5022178;28;20052;-80
2021/09/22 02:01:46;;;;;;;15.85;3.97;;;;;;;10.68;100.00;101703.47;5018372;28;20449;-79
2021/09/22 02:04:12;;;;;;;9.90;3.85;;;;;;;10.63;100.00;101699.94;5020008;28;20406;-80
2021/09/22 02:06:39;;;;;;;8.10;3.38;;;;;;;10.62;100.00;101703.47;4980544;28;20049;-79
2021/09/22 02:09:08;;;;;;;12.30;3.47;;;;;;;10.66;100.00;101699.91;4976741;28;20612;-79
2021/09/22 02:11:38;;;;;;;9.23;3.88;;;;;;;10.61;100.00;101695.56;5016355;28;20125;-81
2021/09/22 02:14:05;;;;;;;9.77;3.15;;;;;;;10.57;100.00;101697.31;5010338;28;20041;-80
2021/09/22 02:16:31;;;;;;;9.93;3.53;;;;;;;10.67;100.00;101701.69;4995570;28;20040;-80
2021/09/22 02:18:58;;;;;;;7.05;3.72;;;;;;;10.53;100.00;101706.16;5003960;28;20676;-79
2021/09/22 02:21:25;;;;;;;9.40;3.20;;;;;;;10.47;100.00;101707.94;5031982;28;20053;-79
2021/09/22 02:23:52;;;;;;;13.48;4.63;;;;;;;10.51;100.00;101713.22;5009535;28;20128;-80
2021/09/22 02:26:18;;;;;;;12.75;4.28;;;;;;;10.41;100.00;101716.75;5009430;28;20045;-79
2021/09/22 02:28:45;;;;;;;10.52;3.60;;;;;;;10.37;100.00;101713.25;5005761;28;20481;-79
2021/09/22 02:31:12;;;;;;;6.00;3.20;;;;;;;10.42;100.00;101715.84;5019491;28;20052;-79
2021/09/22 02:33:38;;;;;;;9.88;3.40;;;;;;;10.37;100.00;101718.53;5005385;28;20065;-80
2021/09/22 02:36:05;;;;;;;11.27;3.42;;;;;;;10.23;100.00;101727.38;4997672;28;20053;-80
2021/09/22 02:38:32;;;;;;;7.10;3.25;;;;;;;10.25;100.00;101725.59;4995722;28;20041;-79
2021/09/22 02:40:58;;;;;;;8.93;3.47;;;;;;;10.23;100.00;101725.59;5004309;28;20056;-80
2021/09/22 02:43:25;;;;;;;10.45;3.45;;;;;;;10.22;100.00;101738.78;4995019;28;20041;-79
2021/09/22 02:45:52;;;;;;;12.18;3.72;;;;;;;10.27;100.00;101723.84;5018619;28;20548;-80
2021/09/22 02:48:19;;;;;;;11.80;4.47;;;;;;;10.39;100.00;101723.81;5016472;28;20045;-80
2021/09/22 02:50:46;;;;;;;15.95;4.22;;;;;;;10.38;100.00;101729.97;5001003;28;20404;-81
2021/09/22 02:53:13;;;;;;;13.38;4.38;;;;;;;10.41;100.00;101737.88;5014437;28;20045;-81
2021/09/22 02:55:42;;;;;;;10.98;4.32;;;;;;;10.35;100.00;101733.50;4993197;28;20497;-80
2021/09/22 02:58:08;;;;;;;15.93;4.28;;;;;;;10.36;100.00;101737.03;4988651;28;20524;-80
2021/09/22 03:00:36;;;;;;;8.38;4.10;;;;;;;10.43;100.00;101749.34;5017222;28;20048;-79
2021/09/22 03:03:02;;;;;;;8.75;3.95;;;;;;;10.47;100.00;101747.56;5011590;28;20045;-79
2021/09/22 03:05:30;;;;;;;10.23;4.15;;;;;;;10.47;100.00;101745.81;5015425;28;20038;-79
2021/09/22 03:07:56;;;;;;;19.35;6.28;;;;;;;10.55;100.00;101751.94;5012570;28;20048;-80
2021/09/22 03:10:23;;;;;;;10.85;4.70;;;;;;;10.59;100.00;101752.78;4994246;28;20041;-80
2021/09/22 03:12:49;;;;;;;12.10;3.85;;;;;;;10.60;100.00;101759.88;5016749;28;20041;-79
2021/09/22 03:15:16;;;;;;;14.00;4.97;;;;;;;10.68;100.00;101755.44;5018072;28;20045;-80
2021/09/22 03:17:43;;;;;;;17.00;4.78;;;;;;;10.73;100.00;101758.94;4998617;28;20048;-81
2021/09/22 03:20:10;;;;;;;13.20;4.88;;;;;;;10.73;100.00;101760.69;5010834;28;20041;-79
2021/09/22 03:22:37;;;;;;;15.50;4.47;;;;;;;10.85;100.00;101758.91;5017235;28;20415;-80
2021/09/22 03:25:06;;;;;;;13.30;4.30;;;;;;;10.77;100.00;101771.25;4995473;28;20034;-80
2021/09/22 03:27:32;;;;;;;12.52;4.80;;;;;;;10.86;100.00;101767.72;5005793;28;20709;-81
2021/09/22 03:29:59;;;;;;;11.25;4.00;;;;;;;10.80;100.00;101765.97;4994270;28;20050;-80
2021/09/22 03:32:26;;;;;;;15.93;5.03;;;;;;;10.84;100.00;101767.69;5003195;28;20087;-80
2021/09/22 03:34:52;;;;;;;14.30;3.72;;;;;;;10.85;100.00;101772.13;4991524;28;20049;-81
2021/09/22 03:37:19;;;;;;;14.38;5.93;;;;;;;10.90;100.00;101762.38;4995228;28;20041;-80
2021/09/22 03:39:46;;;;;;;13.85;5.35;;;;;;;10.90;100.00;101757.09;5026655;28;20040;-79
2021/09/22 03:42:13;;;;;;;18.13;5.68;;;;;;;10.89;100.00;101763.28;4975828;28;21713;-80
2021/09/22 03:44:40;;;;;;;14.88;5.20;;;;;;;10.87;100.00;101762.41;4990985;28;20473;-80
2021/09/22 03:47:06;;;;;;;11.18;4.50;;;;;;;10.87;100.00;101758.88;5014392;28;20083;-79
2021/09/22 03:49:33;;;;;;;19.98;5.65;;;;;;;10.84;100.00;101766.81;5000004;28;20037;-80
2021/09/22 03:52:00;;;;;;;13.02;5.07;;;;;;;10.84;100.00;101769.44;4995101;28;20045;-80
2021/09/22 03:54:26;;;;;;;11.75;3.70;;;;;;;10.80;100.00;101760.66;5018115;28;20056;-79
2021/09/22 03:56:53;;;;;;;18.23;5.75;;;;;;;10.71;100.00;101774.78;4984592;28;20052;-81
2021/09/22 03:59:20;;;;;;;15.27;5.22;;;;;;;10.68;100.00;101766.00;5003734;28;20065;-79
2021/09/22 04:01:46;;;;;;;14.35;4.80;;;;;;;10.73;100.00;101771.25;4989140;28;20045;-79
2021/09/22 04:04:13;;;;;;;10.45;4.40;;;;;;;10.62;100.00;101785.41;4985035;28;20052;-80
2021/09/22 04:06:40;;;;;;;15.32;4.90;;;;;;;10.64;100.00;101780.09;5022402;28;20215;-80
2021/09/22 04:09:14;;;;;;;13.38;4.35;;;;;;;10.55;100.00;101783.66;5015185;28;20041;-80
2021/09/22 04:11:43;;;;;;;14.73;5.00;;;;;;;10.52;100.00;101785.44;4990616;28;20042;-79
2021/09/22 04:14:10;;;;;;;14.95;5.72;;;;;;;10.48;100.00;101787.19;5000198;28;20110;-81
2021/09/22 04:16:37;;;;;;;12.48;4.63;;;;;;;10.55;100.00;101786.28;4998214;28;20490;-80
2021/09/22 04:19:03;;;;;;;12.10;4.35;;;;;;;10.55;100.00;101783.66;4979261;28;20060;-81
2021/09/22 04:21:30;;;;;;;12.73;4.57;;;;;;;10.66;100.00;101781.84;4988310;28;20180;-80
2021/09/22 04:23:57;;;;;;;25.48;6.47;;;;;;;10.59;100.00;101781.88;4995211;28;20052;-80
2021/09/22 04:26:24;;;;;;;14.60;4.28;;;;;;;10.58;100.00;101778.34;5015109;28;20039;-80
2021/09/22 04:28:51;;;;;;;14.48;4.75;;;;;;;10.65;100.00;101782.72;5012543;28;20042;-79
2021/09/22 04:31:18;;;;;;;14.50;5.32;;;;;;;10.66;100.00;101776.56;5016945;28;20041;-79
2021/09/22 04:33:44;;;;;;;19.80;6.20;;;;;;;10.65;100.00;101784.50;5010621;28;20409;-79
2021/09/22 04:36:13;;;;;;;20.88;6.07;;;;;;;10.66;100.00;101784.50;5005485;28;20501;-79
2021/09/22 04:38:41;;;;;;;17.75;6.00;;;;;;;10.69;100.00;101781.84;5013345;28;20068;-80
2021/09/22 04:41:08;;;;;;;16.33;4.75;;;;;;;10.65;100.00;101798.59;5000820;28;20598;-80
2021/09/22 04:43:34;;;;;;;20.23;5.38;;;;;;;10.66;100.00;101797.69;5012694;28;20052;-79
2021/09/22 04:46:01;;;;;;;10.50;4.50;;;;;;;10.62;100.00;101803.91;5016708;28;20068;-81
2021/09/22 04:48:29;;;;;;;13.68;4.75;;;;;;;10.67;100.00;101794.19;4986700;28;20077;-81
2021/09/22 04:50:55;;;;;;;15.55;5.75;;;;;;;10.70;100.00;101799.47;5009259;28;20658;-80
2021/09/22 04:53:22;;;;;;;18.88;6.10;;;;;;;10.71;100.00;101808.28;4991897;28;20049;-80
2021/09/22 04:55:49;;;;;;;16.90;5.10;;;;;;;10.70;100.00;101801.25;5028654;28;20167;-80
2021/09/22 04:58:16;;;;;;;18.67;5.35;;;;;;;10.81;100.00;101810.00;4991929;28;20052;-81
2021/09/22 05:00:42;;;;;;;12.05;4.75;;;;;;;10.78;100.00;101803.88;5030584;28;20107;-80
2021/09/22 05:03:09;;;;;;;11.52;4.25;;;;;;;10.74;100.00;101807.38;4991825;28;20047;-81
2021/09/22 05:05:36;;;;;;;13.32;5.22;;;;;;;10.80;100.00;101820.59;4993418;28;20044;-81
2021/09/22 05:08:03;;;;;;;15.18;5.10;;;;;;;10.83;100.00;101820.56;5025084;28;20049;-82
2021/09/22 05:10:30;;;;;;;14.07;5.05;;;;;;;10.87;100.00;101814.41;5015327;28;20056;-81
2021/09/22 05:12:57;;;;;;;17.90;5.72;;;;;;;10.91;100.00;101811.72;5011812;28;20046;-81
2021/09/22 05:15:24;;;;;;;19.95;6.03;;;;;;;10.87;100.00;101823.22;5013457;28;20038;-81
2021/09/22 05:17:51;;;;;;;11.63;5.25;;;;;;;10.88;100.00;101821.44;5019918;28;20068;-81
2021/09/22 05:20:18;;;;;;;13.77;5.43;;;;;;;10.93;100.00;101820.56;5013195;28;20045;-82
2021/09/22 05:22:44;;;;;;;12.45;4.95;;;;;;;10.90;100.00;101820.56;5008183;28;20111;-80
2021/09/22 05:25:11;;;;;;;28.83;6.43;;;;;;;10.92;100.00;101823.19;4998657;28;20037;-81
2021/09/22 05:27:38;;;;;;;9.73;4.53;;;;;;;10.96;100.00;101828.47;5020672;28;20072;-81
2021/09/22 05:30:06;;;;;;;11.40;4.63;;;;;;;10.99;100.00;101831.09;4980857;28;20525;-81
2021/09/22 05:32:32;;;;;;;14.82;5.78;;;;;;;11.00;100.00;101835.50;4996293;28;20049;-82
2021/09/22 05:34:59;;;;;;;14.23;5.32;;;;;;;11.03;100.00;101836.38;5020250;28;20103;-81
2021/09/22 05:37:27;;;;;;;14.88;4.40;;;;;;;11.04;100.00;101848.72;5009310;28;20049;-81
2021/09/22 05:39:53;;;;;;;11.45;4.65;;;;;;;11.03;100.00;101850.50;5023754;28;20384;-80
2021/09/22 05:42:20;;;;;;;15.05;5.47;;;;;;;11.09;100.00;101850.44;5017263;28;20041;-82
2021/09/22 05:44:49;;;;;;;10.15;3.90;;;;;;;11.09;100.00;101846.91;5009987;28;20041;-79
2021/09/22 05:47:16;;;;;;;14.80;4.88;;;;;;;11.11;100.00;101854.00;4994954;28;20049;-81
2021/09/22 05:49:43;;;;;;;13.52;5.32;;;;;;;11.14;100.00;101861.03;5018353;28;20410;-80
2021/09/22 05:52:10;;;;;;;10.35;4.70;;;;;;;11.16;100.00;101846.03;4991375;28;20507;-81
2021/09/22 05:54:36;;;;;;;13.63;5.55;;;;;;;11.18;100.00;101842.50;5007340;28;20472;-81
2021/09/22 05:57:03;;;;;;;15.60;6.03;;;;;;;11.23;100.00;101830.13;5019326;28;20046;-80
2021/09/22 05:59:30;;;;;;;14.20;5.47;;;;;;;11.24;100.00;101850.38;4991738;28;20049;-80
2021/09/22 06:01:57;;;;;;;20.50;5.82;;;;;;;11.30;100.00;101849.50;4976032;28;20042;-80
2021/09/22 06:04:24;;;;;;;9.38;4.30;;;;;;;11.32;100.00;101849.47;4997748;28;20041;-80
2021/09/22 06:06:50;;;;;;;14.10;5.60;;;;;;;11.32;100.00;101853.00;4999985;28;20572;-80
2021/09/22 06:09:17;;;;;;;18.50;6.35;;;;;;;11.37;100.00;101855.66;4992097;28;20041;-82
2021/09/22 06:11:44;;;;;;;20.40;5.43;;;;;;;11.40;100.00;101852.97;5004052;28;20049;-80
2021/09/22 06:14:10;;;;;;;14.43;5.63;;;;;;;11.50;100.00;101859.97;5005788;28;20041;-81
2021/09/22 06:16:37;;;;;;;11.25;5.03;;;;;;;11.46;100.00;101860.91;5019979;28;20730;-80
2021/09/22 06:19:06;;;;;;;16.73;5.95;;;;;;;11.47;100.00;101865.28;4994417;28;20045;-80
2021/09/22 06:21:32;;;;;;;15.00;5.47;;;;;;;11.46;100.00;101853.84;4997131;28;20053;-80
2021/09/22 06:23:59;;;;;;;13.65;4.75;;;;;;;11.47;100.00;101865.28;5009977;28;20045;-80
2021/09/22 06:26:26;;;;;;;17.10;5.95;;;;;;;11.48;100.00;101864.41;5019239;28;20073;-81
2021/09/22 06:28:53;;;;;;;19.52;5.93;;;;;;;11.52;100.00;101869.69;5013498;28;20046;-82
2021/09/22 06:31:21;;;;;;;19.13;5.88;;;;;;;11.60;100.00;101866.97;5018124;28;20037;-80
2021/09/22 06:33:49;;;;;;;13.52;5.10;;;;;;;11.61;100.00;101876.69;5031414;28;20103;-81
2021/09/22 06:36:16;;;;;;;15.88;5.47;;;;;;;11.66;100.00;101889.91;5006837;28;20037;-81
2021/09/22 06:38:43;;;;;;;15.38;6.00;;;;;;;11.70;100.00;101881.06;5008255;28;20103;-80
2021/09/22 06:41:10;;;;;;;13.77;5.80;;;;;;;11.73;100.00;101883.69;5022256;28;20506;-81
2021/09/22 06:43:36;;;;;;;17.73;5.78;;;;;;;11.75;100.00;101890.72;5016539;28;20442;-82
2021/09/22 06:46:03;;;;;;;21.52;6.18;;;;;;;11.82;100.00;101892.47;4997367;28;20045;-81
2021/09/22 06:48:30;;;;;;;19.17;6.22;;;;;;;11.80;100.00;101888.97;5014615;28;20052;-82
2021/09/22 06:50:57;;;;;;;25.65;6.57;;;;;;;11.83;100.00;101888.94;5018365;28;20041;-81
2021/09/22 06:53:23;;;;;;;19.52;6.53;;;;;;;11.87;100.00;101891.59;4994579;28;20037;-80
2021/09/22 06:55:50;;;;;;;14.80;5.40;;;;;;;11.88;100.00;101888.94;5018332;28;20112;-80
2021/09/22 06:58:17;;;;;;;17.10;5.28;;;;;;;11.86;100.00;101885.41;5013644;28;20045;-80
2021/09/22 07:00:43;;;;;;;13.35;5.13;;;;;;;11.87;100.00;101891.59;5089111;22;20971;-80
2021/09/22 07:03:14;;;;;;;24.30;6.25;;;;;;;11.95;100.00;101893.31;5056467;28;20044;-81
2021/09/22 07:05:45;;;;;;;18.02;6.13;;;;;;;12.04;100.00;101890.59;5053589;28;20049;-81
2021/09/22 07:08:13;;;;;;;13.88;5.45;;;;;;;12.01;100.00;101880.00;5039423;28;20048;-80
2021/09/22 07:10:40;;;;;;;15.80;5.50;;;;;;;12.08;100.00;101883.47;5055744;28;20041;-81
2021/09/22 07:13:08;;;;;;;17.88;5.85;;;;;;;12.14;100.00;101887.88;5031119;28;20037;-81
2021/09/22 07:15:35;;;;;;;12.57;5.38;;;;;;;12.06;100.00;101893.22;5016240;28;20065;-80
2021/09/22 07:18:16;;;;;;;19.70;6.30;;;;;;;12.09;100.00;101890.53;5035792;28;20514;-81
2021/09/22 07:20:42;;;;;;;23.38;7.15;;;;;;;12.17;100.00;101898.44;5050060;28;20438;-81
2021/09/22 07:23:09;;;;;;;22.27;6.53;;;;;;;12.18;100.00;101905.47;5033269;28;20519;-82
2021/09/22 07:25:36;;;;;;;15.80;6.35;;;;;;;12.15;100.00;101909.03;5035410;28;20041;-84
2021/09/22 07:28:03;;;;;;;19.33;9.20;;;;;;;12.14;100.00;101903.75;5035025;28;20037;-82
2021/09/22 07:30:30;;;;;;;17.52;7.30;;;;;;;12.15;100.00;101906.41;5038720;28;20095;-81
2021/09/22 07:32:59;;;;;;;18.27;11.15;;;;;;;12.19;100.00;101904.59;5019851;28;20049;-83
2021/09/22 07:35:27;;;;;;;16.02;6.47;;;;;;;12.26;100.00;101899.25;5035010;28;20037;-81
2021/09/22 07:37:57;;;;;;;18.27;6.22;;;;;;;12.16;100.00;101899.31;5016680;28;20041;-82
2021/09/22 07:40:24;;;;;;;15.10;7.03;;;;;;;12.18;100.00;101893.13;5033328;28;20051;-81
2021/09/22 07:42:51;;;;;;;19.80;6.13;;;;;;;12.27;100.00;101908.94;5030034;28;20041;-81
2021/09/22 07:45:18;;;;;;;18.58;5.70;;;;;;;12.34;100.00;101907.13;5042706;28;20080;-81
2021/09/22 07:47:45;;;;;;;19.27;6.60;;;;;;;12.33;100.00;101906.25;5008247;28;20037;-80
2021/09/22 07:50:12;;;;;;;28.05;7.32;;;;;;;12.48;100.00;101910.56;5012295;28;20694;-80
2021/09/22 07:52:40;;;;;;;14.20;5.28;;;;;;;12.38;100.00;101911.53;5049011;28;20049;-80
2021/09/22 07:55:09;;;;;;;20.30;6.53;;;;;;;12.43;100.00;101917.66;5051365;28;20116;-79
2021/09/22 07:57:37;;;;;;;14.00;5.30;;;;;;;12.42;100.00;101915.03;5048185;28;20037;-79
2021/09/22 08:00:05;;;;;;;15.38;6.38;;;;;;;12.46;100.00;101930.03;5051024;28;20575;-81
2021/09/22 08:02:32;;;;;;;22.30;6.53;;;;;;;12.44;100.00;101937.09;5032194;28;20049;-81
2021/09/22 08:04:59;;;;;;;18.98;5.97;;;;;;;12.45;100.00;101934.44;5034041;28;20456;-81
2021/09/22 08:07:40;;;;;;;18.80;7.03;;;;;;;12.49;100.00;101930.88;5063137;28;20045;-81
2021/09/22 08:10:08;;;;;;;17.95;6.53;;;;;;;12.57;100.00;101928.16;5032223;28;20045;-80
2021/09/22 08:12:34;;;;;;;27.77;8.05;;;;;;;12.49;100.00;101933.50;5031431;28;20087;-81
2021/09/22 08:15:01;;;;;;;20.10;6.28;;;;;;;12.66;100.00;101928.06;5034601;28;20094;-81
2021/09/22 08:17:28;;;;;;;19.63;7.78;;;;;;;12.62;100.00;101931.66;5038258;28;20041;-81
2021/09/22 08:19:55;;;;;;;19.58;13.90;;;;;;;12.53;100.00;101929.09;5019944;28;20048;-83
2021/09/22 08:22:21;;;;;;;29.38;7.90;;;;;;;12.54;100.00;101922.91;5030744;28;20041;-83
2021/09/22 08:24:49;;;;;;;15.77;6.78;;;;;;;12.59;100.00;101921.06;5033140;28;20045;-83
2021/09/22 08:27:16;;;;;;;17.45;6.90;;;;;;;12.58;100.00;101919.31;5013404;28;20049;-81
2021/09/22 08:29:43;;;;;;;12.45;6.22;;;;;;;12.59;100.00;101927.25;5026275;28;20036;-82
2021/09/22 08:32:09;;;;;;;15.13;5.90;;;;;;;12.63;100.00;101925.47;5012831;28;20427;-81
2021/09/22 08:34:36;;;;;;;18.10;6.88;;;;;;;12.64;100.00;101927.22;5015046;28;20048;-81
2021/09/22 08:37:03;;;;;;;18.13;7.32;;;;;;;12.65;100.00;101921.00;5028648;28;20095;-81
2021/09/22 08:39:32;;;;;;;20.00;10.32;;;;;;;12.71;100.00;101926.28;5011613;28;20044;-81
2021/09/22 08:42:03;;;;;;;14.35;6.40;;;;;;;12.88;100.00;101929.66;5043680;28;21992;-81
2021/09/22 08:44:31;;;;;;;23.30;6.70;;;;;;;12.87;100.00;101932.31;5033093;28;20091;-81
2021/09/22 08:46:58;;;;;;;17.80;5.30;;;;;;;12.90;100.00;101933.16;5027089;28;20041;-81
2021/09/22 08:49:25;;;;;;;18.73;6.65;;;;;;;12.92;100.00;101926.06;5047775;28;20044;-81
2021/09/22 08:51:51;;;;;;;19.10;5.90;;;;;;;12.80;100.00;101931.50;5026637;28;20067;-82
2021/09/22 08:54:18;;;;;;;13.82;5.68;;;;;;;12.83;100.00;101927.91;5014184;28;20064;-80
2021/09/22 08:56:45;;;;;;;20.55;7.38;;;;;;;12.92;100.00;101939.31;5038296;28;20561;-81
2021/09/22 08:59:16;;;;;;;19.70;5.40;;;;;;;12.95;100.00;101941.09;5046456;28;20043;-81
2021/09/22 09:02:04;;;;;;;21.50;7.07;;;;;;;13.15;100.00;101938.22;5036218;28;20094;-81
2021/09/22 09:04:31;;;;;;;15.30;5.32;;;;;;;13.13;100.00;101932.94;5032417;28;20158;-80
2021/09/22 09:06:58;;;;;;;19.08;5.45;;;;;;;13.23;100.00;101931.97;5012854;28;20056;-81
2021/09/22 09:09:33;;;;;;;13.90;4.75;;;;;;;13.22;100.00;101938.16;5043433;28;20116;-81
2021/09/22 09:12:00;;;;;;;18.88;5.55;;;;;;;13.26;100.00;101939.00;5043234;28;20067;-80
2021/09/22 09:14:32;;;;;;;15.05;5.57;;;;;;;13.32;100.00;101938.94;5047099;28;20049;-81
2021/09/22 09:17:01;;;;;;;22.40;6.03;;;;;;;13.31;100.00;101946.91;5026309;28;20099;-81
2021/09/22 09:19:27;;;;;;;11.73;4.50;;;;;;;13.31;100.00;101945.16;5048019;28;20049;-81
2021/09/22 09:22:06;;;;;;;15.55;5.28;;;;;;;13.28;100.00;101944.28;5030053;28;20044;-80
2021/09/22 09:24:41;;;;;;;17.85;5.90;;;;;;;13.38;100.00;101944.19;5044191;28;20071;-80
2021/09/22 09:27:11;;;;;;;11.52;4.75;;;;;;;13.28;100.00;101938.97;5045495;28;20045;-81
2021/09/22 09:29:41;;;;;;;17.55;5.32;;;;;;;13.33;100.00;101946.00;5030211;28;20071;-81
2021/09/22 09:32:09;;;;;;;18.17;5.00;;;;;;;13.40;100.00;101944.16;5034071;28;20037;-81
2021/09/22 09:34:36;;;;;;;15.88;5.50;;;;;;;13.49;100.00;101944.03;5031311;28;20037;-81
2021/09/22 09:37:02;;;;;;;48.80;25.98;;;;;;;13.49;100.00;101941.41;5030210;28;20094;-80
2021/09/22 09:39:34;;;;;;;29.35;13.23;;;;;;;13.48;100.00;101937.88;5030308;28;20045;-81
2021/09/22 09:42:01;;;;;;;21.23;7.22;;;;;;;13.64;100.00;101945.66;5047174;28;20122;-83
2021/09/22 09:44:31;;;;;;;18.75;6.55;;;;;;;13.66;100.00;101935.88;5022627;28;20124;-82
2021/09/22 09:47:10;;;;;;;17.38;6.03;;;;;;;13.76;100.00;101937.50;5031315;28;20109;-81
2021/09/22 09:49:39;;;;;;;13.07;5.03;;;;;;;13.76;100.00;101922.44;5032970;28;20606;-80
2021/09/22 09:52:06;;;;;;;34.55;16.20;;;;;;;13.91;100.00;101933.75;5068832;28;20049;-82
2021/09/22 09:54:36;;;;;;;55.80;27.48;;;;;;;13.95;100.00;101927.50;5050670;28;20029;-81
2021/09/22 09:57:29;;;;;;;61.38;31.17;;;;;;;13.90;100.00;101932.91;5036983;28;20303;-81
2021/09/22 09:59:56;;;;;;;15.48;6.40;;;;;;;13.85;100.00;101926.75;5055501;28;20053;-83
2021/09/22 10:02:28;;;;;;;19.67;5.50;;;;;;;13.79;100.00;101930.41;5064097;28;20068;-81
2021/09/22 10:04:57;;;;;;;15.83;5.67;;;;;;;13.96;100.00;101929.28;5043538;28;20140;-83
2021/09/22 10:07:24;;;;;;;12.05;4.82;;;;;;;13.95;100.00;101928.38;5048371;28;20044;-83
2021/09/22 10:09:52;;;;;;;23.13;6.22;;;;;;;14.11;100.00;101931.69;5044318;28;20044;-83
2021/09/22 10:12:20;;;;;;;14.52;5.50;;;;;;;14.14;100.00;101925.47;5053089;28;20410;-83
2021/09/22 10:14:48;;;;;;;15.63;6.28;;;;;;;14.33;100.00;101925.16;5036603;28;20063;-82
2021/09/22 10:17:16;;;;;;;15.15;4.88;;;;;;;14.24;100.00;101922.66;5036297;28;20051;-83
2021/09/22 10:19:47;;;;;;;17.33;5.95;;;;;;;14.30;100.00;101919.91;5038585;28;20087;-80
2021/09/22 10:22:14;;;;;;;18.20;5.90;;;;;;;14.31;100.00;101908.34;5051824;28;20082;-83
2021/09/22 10:24:42;;;;;;;18.70;4.93;;;;;;;14.48;99.82;101907.25;5035768;28;20654;-82
2021/09/22 10:27:13;;;;;;;13.90;4.15;;;;;;;14.45;100.00;101905.50;5050579;28;21328;-81
2021/09/22 10:29:59;;;;;;;17.45;4.72;;;;;;;14.57;98.17;101904.41;5068396;28;20045;-82
2021/09/22 10:32:43;;;;;;;14.98;5.22;;;;;;;14.66;100.00;101906.03;5037319;28;20045;-81
2021/09/22 10:35:26;;;;;;;;;;;;;;;14.64;98.51;101914.94;5018959;28;20326;-82
2021/09/22 10:37:58;;;;;;;11.32;4.20;;;;;;;14.67;99.35;101906.00;5054043;28;20449;-81
2021/09/22 10:40:47;;;;;;;14.27;4.82;;;;;;;14.74;100.00;101904.13;5020695;28;20087;-82
2021/09/22 10:43:14;;;;;;;11.93;4.57;;;;;;;14.90;99.92;101906.47;5045180;28;20048;-80
2021/09/22 10:45:41;;;;;;;16.20;4.55;;;;;;;14.83;94.53;101903.97;5054477;28;20094;-82
2021/09/22 10:48:23;;;;;;;12.18;3.38;;;;;;;14.84;94.08;101901.25;5036248;28;20108;-81
2021/09/22 10:50:54;;;;;;;13.38;5.05;;;;;;;14.91;96.64;101899.38;5037367;28;20075;-81
2021/09/22 10:53:42;;;;;;;11.45;4.20;;;;;;;15.10;86.30;101894.56;5035379;28;20094;-83
2021/09/22 10:56:16;;;;;;;15.65;4.18;;;;;;;15.13;89.13;101895.41;5055829;28;20403;-81
2021/09/22 10:58:49;;;;;;;12.68;4.70;;;;;;;15.21;89.04;101900.53;5073250;28;20032;-82
2021/09/22 11:01:32;;;;;;;17.30;4.03;;;;;;;15.34;90.77;101899.41;5038589;28;20505;-81
2021/09/22 11:04:03;;;;;;;13.32;4.38;;;;;;;15.35;90.92;101900.28;5068882;28;20117;-82
2021/09/22 11:06:44;;;;;;;15.27;4.47;;;;;;;15.42;91.22;101905.44;5036543;28;20076;-82
2021/09/22 11:09:22;;;;;;;11.02;4.85;;;;;;;15.56;91.09;101904.31;5058349;28;20068;-81
2021/09/22 11:12:01;;;;;;;11.27;4.10;;;;;;;15.66;90.57;101901.44;5059791;28;20041;-82
2021/09/22 11:14:43;;;;;;;14.07;3.90;;;;;;;15.69;81.12;101895.16;5077301;28;20033;-83
2021/09/22 11:17:25;;;;;;;11.63;4.40;;;;;;;15.85;80.16;101887.69;5013224;28;20575;-83